Aeroporto :
LOGIN :

Iscrizione | Disclaimer

   EN    FR    IT 

 










Sommario :    VFR   VFR Marginale   IFR   IFR Intensivo   IFR Molto Intensivo
Visibilità : 
Base nubi : 
>= 8 km
>= 3000ft
5 / 8 km
1000 / 3000 ft
1500m / 5 km
500 / 1000 ft
800 / 1500m
200 / 500 ft
< 800m
< 200 ft
Simboli :   Temporali  Nebbia  Neve Forte  Precipitazioni Forti  Vento > 20 kt
SIGMETs :   Varie  Temporali  Ghiacco  Turbolenza  Onda orograficha  Ceneri Vulcaniche







- Altitudine del aeroporto : 157 ft
- Codice IATA : LIL
- Carte del aeroporto


LFQQ - Lille Lesquin

ULTIMO METAR :
  • 201330Z AUTO 03010KT 360V070 CAVOK 25/02 Q1027 NOSIG

METARs OBSOLETI :
  • 201300Z AUTO 03010KT 360V080 CAVOK 25/02 Q1027 NOSIG
  • 201230Z AUTO 05008KT 010V080 CAVOK 24/02 Q1027 NOSIG
  • 201200Z AUTO 04010KT CAVOK 24/02 Q1027 NOSIG
  • 201130Z AUTO 05009KT 010V070 CAVOK 24/05 Q1028 NOSIG
  • 201100Z AUTO 06009KT CAVOK 24/04 Q1028 NOSIG

TAF TAF LFQQ
Valido dal 20 a 12 ore il 21 a 18 ore UTC


201100Z 2012/2118 06009KT CAVOK
ATIS : +33 3 20 16 19 54
Nessun NOTAM noto per questo aeroporto.
1 SIGMET conosciuto per la FIR Paris (LFFF) :
 
Temporali frequenti
LFFF SIGMET 1 VALID 201335/201500 LFPW
LFFF PARIS FIR/UIR FRQ TS OBS WI N4630 E00400 - N4630 E00300 - N4715 E00200 - N4715 E00130 - N4730 E00330 - N4630 E00415 - N4630 E00400 TOP FL340 MOV SW 20KT NC=



MetMap, La meteo Aeronautica in un colpo d'occhio ! - Copyright ORBIFLY Dicembre 2007 - Disclaimer

ORBIFLY MET'MAP TEAM :

Programmazione e sviluppo : Alexandra Zaïnal
Concezione e sviluppo : Baudouin d'Aumeries
Co-Programmazione e sviluppo : Marc-Olivier Méhu
Supporto tecnico e logistico : Manuel Goepfert
Aiuto per la traduzione : Arnaldo La Scala

Contatto : metmap@orbifly.com




FONTI E CREDITI :

   NOAA